sensor_id;sensor_type;location;lat;lon;timestamp;P1;durP1;ratioP1;P2;durP2;ratioP2
10823;SDS011;39116;59.332;18.034;2023-03-02T00:02:09;2.00;;;1.05;;
10823;SDS011;39116;59.332;18.034;2023-03-02T00:04:37;1.77;;;1.00;;
10823;SDS011;39116;59.332;18.034;2023-03-02T00:07:04;3.50;;;1.03;;
10823;SDS011;39116;59.332;18.034;2023-03-02T00:09:28;0.77;;;0.70;;
10823;SDS011;39116;59.332;18.034;2023-03-02T00:11:51;2.25;;;0.70;;
10823;SDS011;39116;59.332;18.034;2023-03-02T00:14:13;1.15;;;0.75;;
10823;SDS011;39116;59.332;18.034;2023-03-02T00:16:35;1.42;;;0.80;;
10823;SDS011;39116;59.332;18.034;2023-03-02T00:18:58;0.75;;;0.75;;
10823;SDS011;39116;59.332;18.034;2023-03-02T00:21:20;1.83;;;0.82;;
10823;SDS011;39116;59.332;18.034;2023-03-02T00:23:43;1.80;;;0.90;;
10823;SDS011;39116;59.332;18.034;2023-03-02T00:26:05;3.83;;;0.77;;
10823;SDS011;39116;59.332;18.034;2023-03-02T00:28:27;1.10;;;0.88;;
10823;SDS011;39116;59.332;18.034;2023-03-02T00:30:49;1.13;;;0.80;;
10823;SDS011;39116;59.332;18.034;2023-03-02T00:33:11;1.00;;;0.83;;
10823;SDS011;39116;59.332;18.034;2023-03-02T00:35:37;2.42;;;0.70;;
10823;SDS011;39116;59.332;18.034;2023-03-02T00:37:59;2.40;;;0.80;;
10823;SDS011;39116;59.332;18.034;2023-03-02T00:40:21;0.80;;;0.70;;
10823;SDS011;39116;59.332;18.034;2023-03-02T00:42:43;1.95;;;0.95;;
10823;SDS011;39116;59.332;18.034;2023-03-02T00:45:05;1.23;;;0.60;;
10823;SDS011;39116;59.332;18.034;2023-03-02T00:47:28;1.33;;;0.80;;
10823;SDS011;39116;59.332;18.034;2023-03-02T00:49:50;1.73;;;0.87;;
10823;SDS011;39116;59.332;18.034;2023-03-02T00:52:13;1.50;;;0.70;;
10823;SDS011;39116;59.332;18.034;2023-03-02T00:54:35;1.33;;;0.83;;
10823;SDS011;39116;59.332;18.034;2023-03-02T00:56:57;2.07;;;0.70;;
10823;SDS011;39116;59.332;18.034;2023-03-02T00:59:19;0.60;;;0.50;;
10823;SDS011;39116;59.332;18.034;2023-03-02T01:01:46;0.83;;;0.80;;
10823;SDS011;39116;59.332;18.034;2023-03-02T01:04:16;2.07;;;0.90;;
10823;SDS011;39116;59.332;18.034;2023-03-02T01:06:38;2.67;;;1.00;;
10823;SDS011;39116;59.332;18.034;2023-03-02T01:09:07;1.10;;;0.80;;
10823;SDS011;39116;59.332;18.034;2023-03-02T01:11:29;1.93;;;0.60;;
10823;SDS011;39116;59.332;18.034;2023-03-02T01:13:51;1.30;;;0.80;;
10823;SDS011;39116;59.332;18.034;2023-03-02T01:16:13;2.17;;;0.73;;
10823;SDS011;39116;59.332;18.034;2023-03-02T01:18:36;1.90;;;0.87;;
10823;SDS011;39116;59.332;18.034;2023-03-02T01:21:01;1.77;;;0.77;;
10823;SDS011;39116;59.332;18.034;2023-03-02T01:23:24;1.40;;;0.60;;
10823;SDS011;39116;59.332;18.034;2023-03-02T01:25:47;1.43;;;0.90;;
10823;SDS011;39116;59.332;18.034;2023-03-02T01:28:10;1.57;;;0.70;;
10823;SDS011;39116;59.332;18.034;2023-03-02T01:30:32;1.00;;;0.60;;
10823;SDS011;39116;59.332;18.034;2023-03-02T01:32:54;0.97;;;0.80;;
10823;SDS011;39116;59.332;18.034;2023-03-02T01:35:16;2.00;;;0.50;;
10823;SDS011;39116;59.332;18.034;2023-03-02T01:37:38;1.03;;;0.50;;
10823;SDS011;39116;59.332;18.034;2023-03-02T01:40:00;0.83;;;0.70;;
10823;SDS011;39116;59.332;18.034;2023-03-02T01:42:27;1.23;;;0.60;;
10823;SDS011;39116;59.332;18.034;2023-03-02T01:44:55;3.53;;;0.80;;
10823;SDS011;39116;59.332;18.034;2023-03-02T01:47:17;2.00;;;0.70;;
10823;SDS011;39116;59.332;18.034;2023-03-02T01:49:45;0.77;;;0.53;;
10823;SDS011;39116;59.332;18.034;2023-03-02T01:52:10;2.17;;;0.63;;
10823;SDS011;39116;59.332;18.034;2023-03-02T01:54:32;2.20;;;0.60;;
10823;SDS011;39116;59.332;18.034;2023-03-02T01:56:56;1.13;;;0.80;;
10823;SDS011;39116;59.332;18.034;2023-03-02T01:59:21;1.40;;;0.60;;
10823;SDS011;39116;59.332;18.034;2023-03-02T02:01:46;0.57;;;0.57;;
10823;SDS011;39116;59.332;18.034;2023-03-02T02:04:12;0.87;;;0.60;;
10823;SDS011;39116;59.332;18.034;2023-03-02T02:06:36;0.60;;;0.50;;
10823;SDS011;39116;59.332;18.034;2023-03-02T02:09:00;1.07;;;0.60;;
10823;SDS011;39116;59.332;18.034;2023-03-02T02:11:24;1.80;;;0.80;;
10823;SDS011;39116;59.332;18.034;2023-03-02T02:13:46;0.77;;;0.63;;
10823;SDS011;39116;59.332;18.034;2023-03-02T02:16:10;0.83;;;0.70;;
10823;SDS011;39116;59.332;18.034;2023-03-02T02:18:32;1.70;;;0.60;;
10823;SDS011;39116;59.332;18.034;2023-03-02T02:20:57;0.80;;;0.60;;
10823;SDS011;39116;59.332;18.034;2023-03-02T02:23:32;0.50;;;0.50;;
10823;SDS011;39116;59.332;18.034;2023-03-02T02:26:08;0.80;;;0.63;;
10823;SDS011;39116;59.332;18.034;2023-03-02T02:28:34;0.50;;;0.50;;
10823;SDS011;39116;59.332;18.034;2023-03-02T02:31:03;0.70;;;0.70;;
10823;SDS011;39116;59.332;18.034;2023-03-02T02:33:29;1.83;;;0.80;;
10823;SDS011;39116;59.332;18.034;2023-03-02T02:35:59;0.90;;;0.57;;
10823;SDS011;39116;59.332;18.034;2023-03-02T02:38:24;0.80;;;0.70;;
10823;SDS011;39116;59.332;18.034;2023-03-02T02:40:47;2.50;;;0.70;;
10823;SDS011;39116;59.332;18.034;2023-03-02T02:43:14;1.43;;;0.50;;
10823;SDS011;39116;59.332;18.034;2023-03-02T02:45:38;0.47;;;0.47;;
10823;SDS011;39116;59.332;18.034;2023-03-02T02:48:00;1.37;;;0.70;;
10823;SDS011;39116;59.332;18.034;2023-03-02T02:50:23;1.53;;;0.60;;
10823;SDS011;39116;59.332;18.034;2023-03-02T02:52:50;0.80;;;0.63;;
10823;SDS011;39116;59.332;18.034;2023-03-02T02:55:18;1.70;;;0.70;;
10823;SDS011;39116;59.332;18.034;2023-03-02T02:57:43;0.77;;;0.60;;
10823;SDS011;39116;59.332;18.034;2023-03-02T03:00:13;1.70;;;0.60;;
10823;SDS011;39116;59.332;18.034;2023-03-02T03:02:40;1.50;;;0.80;;
10823;SDS011;39116;59.332;18.034;2023-03-02T03:05:08;0.80;;;0.80;;
10823;SDS011;39116;59.332;18.034;2023-03-02T03:07:34;0.67;;;0.60;;
10823;SDS011;39116;59.332;18.034;2023-03-02T03:09:56;0.90;;;0.80;;
10823;SDS011;39116;59.332;18.034;2023-03-02T03:12:22;2.00;;;0.80;;
10823;SDS011;39116;59.332;18.034;2023-03-02T03:14:46;1.80;;;0.60;;
10823;SDS011;39116;59.332;18.034;2023-03-02T03:17:10;0.77;;;0.77;;
10823;SDS011;39116;59.332;18.034;2023-03-02T03:19:32;0.97;;;0.60;;
10823;SDS011;39116;59.332;18.034;2023-03-02T03:21:55;0.80;;;0.80;;
10823;SDS011;39116;59.332;18.034;2023-03-02T03:24:19;0.80;;;0.70;;
10823;SDS011;39116;59.332;18.034;2023-03-02T03:26:41;1.23;;;0.90;;
10823;SDS011;39116;59.332;18.034;2023-03-02T03:29:03;0.50;;;0.50;;
10823;SDS011;39116;59.332;18.034;2023-03-02T03:31:26;0.97;;;0.50;;
10823;SDS011;39116;59.332;18.034;2023-03-02T03:33:50;1.87;;;0.70;;
10823;SDS011;39116;59.332;18.034;2023-03-02T03:36:11;1.40;;;0.67;;
10823;SDS011;39116;59.332;18.034;2023-03-02T03:38:33;1.10;;;0.70;;
10823;SDS011;39116;59.332;18.034;2023-03-02T03:40:55;1.07;;;0.60;;
10823;SDS011;39116;59.332;18.034;2023-03-02T03:43:17;1.80;;;0.60;;
10823;SDS011;39116;59.332;18.034;2023-03-02T03:45:39;2.27;;;0.90;;
10823;SDS011;39116;59.332;18.034;2023-03-02T03:48:01;0.80;;;0.50;;
10823;SDS011;39116;59.332;18.034;2023-03-02T03:50:25;0.53;;;0.50;;
10823;SDS011;39116;59.332;18.034;2023-03-02T03:52:47;1.40;;;0.80;;
10823;SDS011;39116;59.332;18.034;2023-03-02T03:55:09;0.53;;;0.50;;
10823;SDS011;39116;59.332;18.034;2023-03-02T03:57:32;1.07;;;0.70;;
10823;SDS011;39116;59.332;18.034;2023-03-02T03:59:54;1.17;;;0.73;;
10823;SDS011;39116;59.332;18.034;2023-03-02T04:02:16;1.47;;;0.87;;
10823;SDS011;39116;59.332;18.034;2023-03-02T04:04:38;0.60;;;0.60;;
10823;SDS011;39116;59.332;18.034;2023-03-02T04:07:01;0.63;;;0.63;;
10823;SDS011;39116;59.332;18.034;2023-03-02T04:09:24;0.97;;;0.70;;
10823;SDS011;39116;59.332;18.034;2023-03-02T04:11:47;0.60;;;0.60;;
10823;SDS011;39116;59.332;18.034;2023-03-02T04:14:11;0.60;;;0.60;;
10823;SDS011;39116;59.332;18.034;2023-03-02T04:16:34;3.53;;;0.90;;
10823;SDS011;39116;59.332;18.034;2023-03-02T04:18:57;1.03;;;0.70;;
10823;SDS011;39116;59.332;18.034;2023-03-02T04:21:19;0.97;;;0.77;;
10823;SDS011;39116;59.332;18.034;2023-03-02T04:23:42;0.90;;;0.70;;
10823;SDS011;39116;59.332;18.034;2023-03-02T04:26:04;0.80;;;0.60;;
10823;SDS011;39116;59.332;18.034;2023-03-02T04:28:26;1.40;;;0.80;;
10823;SDS011;39116;59.332;18.034;2023-03-02T04:30:48;2.13;;;0.70;;
10823;SDS011;39116;59.332;18.034;2023-03-02T04:33:10;0.60;;;0.60;;
10823;SDS011;39116;59.332;18.034;2023-03-02T04:35:32;1.10;;;0.70;;
10823;SDS011;39116;59.332;18.034;2023-03-02T04:37:55;0.70;;;0.60;;
10823;SDS011;39116;59.332;18.034;2023-03-02T04:40:18;1.17;;;0.80;;
10823;SDS011;39116;59.332;18.034;2023-03-02T04:42:40;0.83;;;0.70;;
10823;SDS011;39116;59.332;18.034;2023-03-02T04:45:04;0.53;;;0.50;;
10823;SDS011;39116;59.332;18.034;2023-03-02T04:47:26;0.80;;;0.60;;
10823;SDS011;39116;59.332;18.034;2023-03-02T04:49:48;1.00;;;0.70;;
10823;SDS011;39116;59.332;18.034;2023-03-02T04:52:13;1.03;;;0.70;;
10823;SDS011;39116;59.332;18.034;2023-03-02T04:54:35;0.73;;;0.60;;
10823;SDS011;39116;59.332;18.034;2023-03-02T04:56:59;1.03;;;0.60;;
10823;SDS011;39116;59.332;18.034;2023-03-02T04:59:21;1.10;;;0.63;;
10823;SDS011;39116;59.332;18.034;2023-03-02T05:01:45;0.60;;;0.60;;
10823;SDS011;39116;59.332;18.034;2023-03-02T05:04:08;0.63;;;0.60;;
10823;SDS011;39116;59.332;18.034;2023-03-02T05:06:31;1.60;;;0.70;;
10823;SDS011;39116;59.332;18.034;2023-03-02T05:08:53;0.90;;;0.50;;
10823;SDS011;39116;59.332;18.034;2023-03-02T05:11:18;1.53;;;0.60;;
10823;SDS011;39116;59.332;18.034;2023-03-02T05:13:43;0.63;;;0.50;;
10823;SDS011;39116;59.332;18.034;2023-03-02T05:16:06;1.37;;;0.87;;
10823;SDS011;39116;59.332;18.034;2023-03-02T05:18:28;0.90;;;0.70;;
10823;SDS011;39116;59.332;18.034;2023-03-02T05:20:50;1.70;;;0.60;;
10823;SDS011;39116;59.332;18.034;2023-03-02T05:23:13;1.53;;;0.70;;
10823;SDS011;39116;59.332;18.034;2023-03-02T05:25:43;1.27;;;0.80;;
10823;SDS011;39116;59.332;18.034;2023-03-02T05:28:05;1.33;;;0.83;;
10823;SDS011;39116;59.332;18.034;2023-03-02T05:30:28;1.93;;;0.60;;
10823;SDS011;39116;59.332;18.034;2023-03-02T05:32:51;0.77;;;0.63;;
10823;SDS011;39116;59.332;18.034;2023-03-02T05:35:14;0.60;;;0.60;;
10823;SDS011;39116;59.332;18.034;2023-03-02T05:37:36;1.33;;;0.80;;
10823;SDS011;39116;59.332;18.034;2023-03-02T05:40:01;0.77;;;0.70;;
10823;SDS011;39116;59.332;18.034;2023-03-02T05:42:25;0.87;;;0.50;;
10823;SDS011;39116;59.332;18.034;2023-03-02T05:44:47;1.93;;;0.87;;
10823;SDS011;39116;59.332;18.034;2023-03-02T05:47:11;1.93;;;0.83;;
10823;SDS011;39116;59.332;18.034;2023-03-02T05:49:32;0.83;;;0.63;;
10823;SDS011;39116;59.332;18.034;2023-03-02T05:51:54;1.00;;;0.67;;
10823;SDS011;39116;59.332;18.034;2023-03-02T05:54:16;0.83;;;0.60;;
10823;SDS011;39116;59.332;18.034;2023-03-02T05:56:38;2.73;;;1.10;;
10823;SDS011;39116;59.332;18.034;2023-03-02T05:59:00;1.07;;;0.60;;
10823;SDS011;39116;59.332;18.034;2023-03-02T06:01:22;1.00;;;0.83;;
10823;SDS011;39116;59.332;18.034;2023-03-02T06:03:45;2.40;;;0.73;;
10823;SDS011;39116;59.332;18.034;2023-03-02T06:06:07;2.10;;;0.83;;
10823;SDS011;39116;59.332;18.034;2023-03-02T06:08:33;2.53;;;0.63;;
10823;SDS011;39116;59.332;18.034;2023-03-02T06:11:00;0.90;;;0.60;;
10823;SDS011;39116;59.332;18.034;2023-03-02T06:13:22;1.27;;;0.60;;
10823;SDS011;39116;59.332;18.034;2023-03-02T06:15:44;1.40;;;0.83;;
10823;SDS011;39116;59.332;18.034;2023-03-02T06:18:05;3.00;;;0.60;;
10823;SDS011;39116;59.332;18.034;2023-03-02T06:20:29;3.23;;;0.90;;
10823;SDS011;39116;59.332;18.034;2023-03-02T06:22:51;0.50;;;0.50;;
10823;SDS011;39116;59.332;18.034;2023-03-02T06:25:13;2.30;;;0.60;;
10823;SDS011;39116;59.332;18.034;2023-03-02T06:27:38;0.50;;;0.50;;
10823;SDS011;39116;59.332;18.034;2023-03-02T06:30:01;2.33;;;0.90;;
10823;SDS011;39116;59.332;18.034;2023-03-02T06:32:23;1.43;;;0.80;;
10823;SDS011;39116;59.332;18.034;2023-03-02T06:34:44;2.90;;;0.73;;
10823;SDS011;39116;59.332;18.034;2023-03-02T06:37:08;1.43;;;0.90;;
10823;SDS011;39116;59.332;18.034;2023-03-02T06:39:30;1.67;;;0.97;;
10823;SDS011;39116;59.332;18.034;2023-03-02T06:41:53;1.83;;;0.90;;
10823;SDS011;39116;59.332;18.034;2023-03-02T06:44:15;1.50;;;0.80;;
10823;SDS011;39116;59.332;18.034;2023-03-02T06:46:38;0.80;;;0.80;;
10823;SDS011;39116;59.332;18.034;2023-03-02T06:49:01;1.33;;;0.80;;
10823;SDS011;39116;59.332;18.034;2023-03-02T06:51:23;1.97;;;0.90;;
10823;SDS011;39116;59.332;18.034;2023-03-02T06:53:46;1.90;;;0.90;;
10823;SDS011;39116;59.332;18.034;2023-03-02T06:56:08;1.30;;;0.80;;
10823;SDS011;39116;59.332;18.034;2023-03-02T06:58:30;4.17;;;1.00;;
10823;SDS011;39116;59.332;18.034;2023-03-02T07:00:52;1.17;;;0.80;;
10823;SDS011;39116;59.332;18.034;2023-03-02T07:03:14;3.50;;;0.80;;
10823;SDS011;39116;59.332;18.034;2023-03-02T07:05:37;3.70;;;1.07;;
10823;SDS011;39116;59.332;18.034;2023-03-02T07:07:59;2.17;;;0.80;;
10823;SDS011;39116;59.332;18.034;2023-03-02T07:10:23;2.73;;;0.90;;
10823;SDS011;39116;59.332;18.034;2023-03-02T07:12:45;2.07;;;0.80;;
10823;SDS011;39116;59.332;18.034;2023-03-02T07:15:07;3.10;;;1.10;;
10823;SDS011;39116;59.332;18.034;2023-03-02T07:17:33;2.27;;;1.00;;
10823;SDS011;39116;59.332;18.034;2023-03-02T07:19:55;3.33;;;0.90;;
10823;SDS011;39116;59.332;18.034;2023-03-02T07:22:17;3.30;;;0.80;;
10823;SDS011;39116;59.332;18.034;2023-03-02T07:24:39;3.20;;;1.30;;
10823;SDS011;39116;59.332;18.034;2023-03-02T07:27:02;0.80;;;0.73;;
10823;SDS011;39116;59.332;18.034;2023-03-02T07:29:24;1.40;;;0.87;;
10823;SDS011;39116;59.332;18.034;2023-03-02T07:31:46;2.57;;;1.13;;
10823;SDS011;39116;59.332;18.034;2023-03-02T07:34:08;4.53;;;1.20;;
10823;SDS011;39116;59.332;18.034;2023-03-02T07:36:30;3.23;;;0.97;;
10823;SDS011;39116;59.332;18.034;2023-03-02T07:38:52;5.70;;;1.17;;
10823;SDS011;39116;59.332;18.034;2023-03-02T07:41:14;6.13;;;1.30;;
10823;SDS011;39116;59.332;18.034;2023-03-02T07:43:37;3.77;;;1.10;;
10823;SDS011;39116;59.332;18.034;2023-03-02T07:45:59;3.43;;;0.93;;
10823;SDS011;39116;59.332;18.034;2023-03-02T07:48:21;2.93;;;1.30;;
10823;SDS011;39116;59.332;18.034;2023-03-02T07:50:43;2.60;;;0.93;;
10823;SDS011;39116;59.332;18.034;2023-03-02T07:53:05;4.20;;;1.10;;
10823;SDS011;39116;59.332;18.034;2023-03-02T07:55:27;4.60;;;1.00;;
10823;SDS011;39116;59.332;18.034;2023-03-02T07:57:49;3.00;;;0.90;;
10823;SDS011;39116;59.332;18.034;2023-03-02T08:00:13;11.97;;;1.50;;
10823;SDS011;39116;59.332;18.034;2023-03-02T08:02:36;6.80;;;1.30;;
10823;SDS011;39116;59.332;18.034;2023-03-02T08:04:59;6.87;;;1.43;;
10823;SDS011;39116;59.332;18.034;2023-03-02T08:07:21;4.13;;;1.20;;
10823;SDS011;39116;59.332;18.034;2023-03-02T08:09:43;3.33;;;1.03;;
10823;SDS011;39116;59.332;18.034;2023-03-02T08:12:05;5.63;;;1.30;;
10823;SDS011;39116;59.332;18.034;2023-03-02T08:14:27;5.23;;;1.73;;
10823;SDS011;39116;59.332;18.034;2023-03-02T08:16:51;5.77;;;1.50;;
10823;SDS011;39116;59.332;18.034;2023-03-02T08:19:13;5.73;;;1.57;;
10823;SDS011;39116;59.332;18.034;2023-03-02T08:21:35;7.03;;;1.40;;
10823;SDS011;39116;59.332;18.034;2023-03-02T08:23:57;5.83;;;1.20;;
10823;SDS011;39116;59.332;18.034;2023-03-02T08:26:19;4.67;;;1.00;;
10823;SDS011;39116;59.332;18.034;2023-03-02T08:28:41;4.20;;;1.17;;
10823;SDS011;39116;59.332;18.034;2023-03-02T08:31:04;3.33;;;1.47;;
10823;SDS011;39116;59.332;18.034;2023-03-02T08:33:29;6.23;;;1.37;;
10823;SDS011;39116;59.332;18.034;2023-03-02T08:35:54;6.60;;;1.43;;
10823;SDS011;39116;59.332;18.034;2023-03-02T08:38:16;6.17;;;1.50;;
10823;SDS011;39116;59.332;18.034;2023-03-02T08:40:38;5.57;;;1.20;;
10823;SDS011;39116;59.332;18.034;2023-03-02T08:43:00;2.60;;;1.00;;
10823;SDS011;39116;59.332;18.034;2023-03-02T08:45:22;5.33;;;1.20;;
10823;SDS011;39116;59.332;18.034;2023-03-02T08:47:44;4.17;;;1.20;;
10823;SDS011;39116;59.332;18.034;2023-03-02T08:50:09;7.27;;;1.83;;
10823;SDS011;39116;59.332;18.034;2023-03-02T08:52:31;6.23;;;1.53;;
10823;SDS011;39116;59.332;18.034;2023-03-02T08:54:53;8.87;;;1.20;;
10823;SDS011;39116;59.332;18.034;2023-03-02T08:57:15;4.33;;;1.20;;
10823;SDS011;39116;59.332;18.034;2023-03-02T08:59:38;4.57;;;1.30;;
10823;SDS011;39116;59.332;18.034;2023-03-02T09:01:59;4.88;;;1.13;;
10823;SDS011;39116;59.332;18.034;2023-03-02T09:04:21;8.73;;;1.40;;
10823;SDS011;39116;59.332;18.034;2023-03-02T09:06:45;4.53;;;1.30;;
10823;SDS011;39116;59.332;18.034;2023-03-02T09:09:07;8.48;;;1.42;;
10823;SDS011;39116;59.332;18.034;2023-03-02T09:11:30;3.60;;;1.50;;
10823;SDS011;39116;59.332;18.034;2023-03-02T09:13:52;5.22;;;1.20;;
10823;SDS011;39116;59.332;18.034;2023-03-02T09:16:15;4.95;;;1.40;;
10823;SDS011;39116;59.332;18.034;2023-03-02T09:18:39;10.05;;;1.50;;
10823;SDS011;39116;59.332;18.034;2023-03-02T09:21:01;8.43;;;1.52;;
10823;SDS011;39116;59.332;18.034;2023-03-02T09:23:25;3.97;;;1.20;;
10823;SDS011;39116;59.332;18.034;2023-03-02T09:25:47;5.87;;;1.73;;
10823;SDS011;39116;59.332;18.034;2023-03-02T09:28:10;6.63;;;1.23;;
10823;SDS011;39116;59.332;18.034;2023-03-02T09:30:32;7.23;;;1.33;;
10823;SDS011;39116;59.332;18.034;2023-03-02T09:32:54;7.85;;;1.50;;
10823;SDS011;39116;59.332;18.034;2023-03-02T09:35:16;3.10;;;1.20;;
10823;SDS011;39116;59.332;18.034;2023-03-02T09:37:38;6.17;;;1.33;;
10823;SDS011;39116;59.332;18.034;2023-03-02T09:40:03;10.63;;;1.80;;
10823;SDS011;39116;59.332;18.034;2023-03-02T09:42:39;7.45;;;1.35;;
10823;SDS011;39116;59.332;18.034;2023-03-02T09:45:24;4.70;;;1.40;;
10823;SDS011;39116;59.332;18.034;2023-03-02T09:48:00;8.10;;;1.42;;
10823;SDS011;39116;59.332;18.034;2023-03-02T09:50:31;6.32;;;1.38;;
10823;SDS011;39116;59.332;18.034;2023-03-02T09:52:59;6.88;;;1.58;;
10823;SDS011;39116;59.332;18.034;2023-03-02T09:55:37;7.05;;;1.58;;
10823;SDS011;39116;59.332;18.034;2023-03-02T09:57:59;6.32;;;1.65;;
10823;SDS011;39116;59.332;18.034;2023-03-02T10:00:24;4.25;;;1.23;;
10823;SDS011;39116;59.332;18.034;2023-03-02T10:02:49;5.65;;;1.75;;
10823;SDS011;39116;59.332;18.034;2023-03-02T10:05:16;4.57;;;1.52;;
10823;SDS011;39116;59.332;18.034;2023-03-02T10:07:40;5.82;;;1.30;;
10823;SDS011;39116;59.332;18.034;2023-03-02T10:10:05;5.13;;;1.45;;
10823;SDS011;39116;59.332;18.034;2023-03-02T10:12:46;6.00;;;1.65;;
10823;SDS011;39116;59.332;18.034;2023-03-02T10:15:20;6.35;;;1.38;;
10823;SDS011;39116;59.332;18.034;2023-03-02T10:17:49;6.72;;;1.40;;
10823;SDS011;39116;59.332;18.034;2023-03-02T10:20:20;4.45;;;1.20;;
10823;SDS011;39116;59.332;18.034;2023-03-02T10:22:51;9.60;;;1.50;;
10823;SDS011;39116;59.332;18.034;2023-03-02T10:25:21;8.88;;;1.63;;
10823;SDS011;39116;59.332;18.034;2023-03-02T10:27:53;4.88;;;1.38;;
10823;SDS011;39116;59.332;18.034;2023-03-02T10:30:23;6.10;;;1.73;;
10823;SDS011;39116;59.332;18.034;2023-03-02T10:32:50;6.80;;;1.30;;
10823;SDS011;39116;59.332;18.034;2023-03-02T10:35:13;3.17;;;1.08;;
10823;SDS011;39116;59.332;18.034;2023-03-02T10:37:39;3.95;;;1.42;;
10823;SDS011;39116;59.332;18.034;2023-03-02T10:40:01;3.80;;;1.83;;
10823;SDS011;39116;59.332;18.034;2023-03-02T10:42:24;9.32;;;1.50;;
10823;SDS011;39116;59.332;18.034;2023-03-02T10:44:52;7.88;;;1.88;;
10823;SDS011;39116;59.332;18.034;2023-03-02T10:47:18;10.02;;;1.52;;
10823;SDS011;39116;59.332;18.034;2023-03-02T10:49:41;9.68;;;1.40;;
10823;SDS011;39116;59.332;18.034;2023-03-02T10:52:04;10.43;;;2.03;;
10823;SDS011;39116;59.332;18.034;2023-03-02T10:54:33;3.88;;;1.48;;
10823;SDS011;39116;59.332;18.034;2023-03-02T10:56:57;7.43;;;1.70;;
10823;SDS011;39116;59.332;18.034;2023-03-02T10:59:39;3.58;;;1.73;;
10823;SDS011;39116;59.332;18.034;2023-03-02T11:02:10;8.05;;;1.90;;
10823;SDS011;39116;59.332;18.034;2023-03-02T11:04:35;7.47;;;1.80;;
10823;SDS011;39116;59.332;18.034;2023-03-02T11:07:06;6.72;;;1.67;;
10823;SDS011;39116;59.332;18.034;2023-03-02T11:09:30;3.55;;;1.45;;
10823;SDS011;39116;59.332;18.034;2023-03-02T11:11:53;5.13;;;1.50;;
10823;SDS011;39116;59.332;18.034;2023-03-02T11:14:18;4.20;;;1.60;;
10823;SDS011;39116;59.332;18.034;2023-03-02T11:16:41;4.65;;;1.67;;
10823;SDS011;39116;59.332;18.034;2023-03-02T11:19:06;5.70;;;1.83;;
10823;SDS011;39116;59.332;18.034;2023-03-02T11:21:35;8.02;;;1.77;;
10823;SDS011;39116;59.332;18.034;2023-03-02T11:24:03;6.57;;;1.75;;
10823;SDS011;39116;59.332;18.034;2023-03-02T11:26:32;5.63;;;1.77;;
10823;SDS011;39116;59.332;18.034;2023-03-02T11:28:58;5.55;;;1.30;;
10823;SDS011;39116;59.332;18.034;2023-03-02T11:31:25;7.65;;;1.77;;
10823;SDS011;39116;59.332;18.034;2023-03-02T11:33:58;9.13;;;1.80;;
10823;SDS011;39116;59.332;18.034;2023-03-02T11:36:29;8.77;;;1.83;;
10823;SDS011;39116;59.332;18.034;2023-03-02T11:39:03;7.93;;;1.60;;
10823;SDS011;39116;59.332;18.034;2023-03-02T11:41:29;4.30;;;1.40;;
10823;SDS011;39116;59.332;18.034;2023-03-02T11:43:55;3.33;;;1.27;;
10823;SDS011;39116;59.332;18.034;2023-03-02T11:46:22;5.40;;;1.33;;
10823;SDS011;39116;59.332;18.034;2023-03-02T11:48:47;4.15;;;1.25;;
10823;SDS011;39116;59.332;18.034;2023-03-02T11:51:14;6.30;;;1.60;;
10823;SDS011;39116;59.332;18.034;2023-03-02T11:53:42;5.22;;;2.05;;
10823;SDS011;39116;59.332;18.034;2023-03-02T11:56:08;7.78;;;1.80;;
10823;SDS011;39116;59.332;18.034;2023-03-02T11:58:31;4.85;;;1.70;;
10823;SDS011;39116;59.332;18.034;2023-03-02T12:00:54;7.45;;;1.67;;
10823;SDS011;39116;59.332;18.034;2023-03-02T12:03:18;6.45;;;1.60;;
10823;SDS011;39116;59.332;18.034;2023-03-02T12:05:44;10.32;;;1.83;;
10823;SDS011;39116;59.332;18.034;2023-03-02T12:10:59;4.97;;;1.50;;
10823;SDS011;39116;59.332;18.034;2023-03-02T12:13:24;9.15;;;1.55;;
10823;SDS011;39116;59.332;18.034;2023-03-02T12:15:49;7.40;;;1.33;;
10823;SDS011;39116;59.332;18.034;2023-03-02T12:21:02;8.18;;;1.40;;
10823;SDS011;39116;59.332;18.034;2023-03-02T12:23:27;5.82;;;1.52;;
10823;SDS011;39116;59.332;18.034;2023-03-02T12:26:02;10.15;;;1.85;;
10823;SDS011;39116;59.332;18.034;2023-03-02T12:28:28;7.18;;;1.27;;
10823;SDS011;39116;59.332;18.034;2023-03-02T12:30:59;7.50;;;1.42;;
10823;SDS011;39116;59.332;18.034;2023-03-02T12:33:23;2.97;;;1.17;;
10823;SDS011;39116;59.332;18.034;2023-03-02T12:35:45;4.95;;;1.30;;
10823;SDS011;39116;59.332;18.034;2023-03-02T12:38:15;2.63;;;1.10;;
10823;SDS011;39116;59.332;18.034;2023-03-02T12:40:49;3.38;;;1.52;;
10823;SDS011;39116;59.332;18.034;2023-03-02T12:43:27;2.72;;;1.30;;
10823;SDS011;39116;59.332;18.034;2023-03-02T12:46:04;6.47;;;1.25;;
10823;SDS011;39116;59.332;18.034;2023-03-02T12:48:49;4.35;;;1.20;;
10823;SDS011;39116;59.332;18.034;2023-03-02T12:51:42;4.00;;;1.52;;
10823;SDS011;39116;59.332;18.034;2023-03-02T12:54:11;3.72;;;1.45;;
10823;SDS011;39116;59.332;18.034;2023-03-02T12:56:34;6.63;;;1.88;;
10823;SDS011;39116;59.332;18.034;2023-03-02T12:58:58;2.75;;;1.05;;
10823;SDS011;39116;59.332;18.034;2023-03-02T13:01:21;2.85;;;1.13;;
10823;SDS011;39116;59.332;18.034;2023-03-02T13:03:46;6.30;;;1.08;;
10823;SDS011;39116;59.332;18.034;2023-03-02T13:06:10;4.47;;;1.10;;
10823;SDS011;39116;59.332;18.034;2023-03-02T13:08:35;5.45;;;1.33;;
10823;SDS011;39116;59.332;18.034;2023-03-02T13:10:57;7.03;;;1.45;;
10823;SDS011;39116;59.332;18.034;2023-03-02T13:13:22;5.15;;;1.35;;
10823;SDS011;39116;59.332;18.034;2023-03-02T13:15:50;5.80;;;1.40;;
10823;SDS011;39116;59.332;18.034;2023-03-02T13:18:13;5.40;;;1.00;;
10823;SDS011;39116;59.332;18.034;2023-03-02T13:20:36;5.53;;;1.40;;
10823;SDS011;39116;59.332;18.034;2023-03-02T13:22:59;4.95;;;1.27;;
10823;SDS011;39116;59.332;18.034;2023-03-02T13:25:22;3.28;;;1.00;;
10823;SDS011;39116;59.332;18.034;2023-03-02T13:27:50;3.88;;;1.17;;
10823;SDS011;39116;59.332;18.034;2023-03-02T13:30:21;6.25;;;1.20;;
10823;SDS011;39116;59.332;18.034;2023-03-02T13:32:45;3.13;;;0.98;;
10823;SDS011;39116;59.332;18.034;2023-03-02T13:35:14;5.57;;;1.25;;
10823;SDS011;39116;59.332;18.034;2023-03-02T13:37:39;5.15;;;1.20;;
10823;SDS011;39116;59.332;18.034;2023-03-02T13:40:03;6.65;;;2.15;;
10823;SDS011;39116;59.332;18.034;2023-03-02T13:42:32;3.92;;;1.00;;
10823;SDS011;39116;59.332;18.034;2023-03-02T13:44:56;5.78;;;1.88;;
10823;SDS011;39116;59.332;18.034;2023-03-02T13:47:30;5.03;;;1.45;;
10823;SDS011;39116;59.332;18.034;2023-03-02T13:49:53;5.07;;;1.05;;
10823;SDS011;39116;59.332;18.034;2023-03-02T13:52:16;4.80;;;1.40;;
10823;SDS011;39116;59.332;18.034;2023-03-02T13:54:43;6.00;;;1.33;;
10823;SDS011;39116;59.332;18.034;2023-03-02T13:57:09;5.22;;;1.30;;
10823;SDS011;39116;59.332;18.034;2023-03-02T13:59:36;3.95;;;1.10;;
10823;SDS011;39116;59.332;18.034;2023-03-02T14:01:59;2.55;;;1.08;;
10823;SDS011;39116;59.332;18.034;2023-03-02T14:04:21;4.97;;;1.10;;
10823;SDS011;39116;59.332;18.034;2023-03-02T14:06:45;5.75;;;1.00;;
10823;SDS011;39116;59.332;18.034;2023-03-02T14:09:07;3.30;;;0.95;;
10823;SDS011;39116;59.332;18.034;2023-03-02T14:11:28;4.70;;;1.23;;
10823;SDS011;39116;59.332;18.034;2023-03-02T14:13:55;5.00;;;1.38;;
10823;SDS011;39116;59.332;18.034;2023-03-02T14:16:17;3.33;;;1.23;;
10823;SDS011;39116;59.332;18.034;2023-03-02T14:18:39;7.28;;;1.40;;
10823;SDS011;39116;59.332;18.034;2023-03-02T14:21:03;5.25;;;1.13;;
10823;SDS011;39116;59.332;18.034;2023-03-02T14:23:27;3.55;;;1.20;;